Time;durP1;ratioP1;P1;durP2;ratioP2;P2;SDS_P1;SDS_P2;PMS_P1;PMS_P2;Temp;Humidity;BMP_temperature;BMP_pressure;BME280_temperature;BME280_humidity;BME280_pressure;Samples;Min_cycle;Max_cycle;Signal;HPM_P1;HPM_P2
2022/05/22 00:00:43;;;;;;;3.10;0.80;;;19.80;99.90;;;;;;5073441;28;20175;-68
2022/05/22 00:03:12;;;;;;;2.97;0.70;;;20.20;99.90;;;;;;5073435;28;20318;-68
2022/05/22 00:05:39;;;;;;;3.07;0.90;;;20.60;99.90;;;;;;5073198;28;20175;-68
2022/05/22 00:08:07;;;;;;;5.60;0.87;;;21.00;99.90;;;;;;5073234;28;20711;-68
2022/05/22 00:10:35;;;;;;;3.23;0.90;;;20.70;99.90;;;;;;5071961;28;20184;-68
2022/05/22 00:13:02;;;;;;;1.80;0.70;;;20.20;99.90;;;;;;5072553;28;20211;-68
2022/05/22 00:15:30;;;;;;;1.93;0.97;;;20.20;99.90;;;;;;5072854;28;20180;-68
2022/05/22 00:17:58;;;;;;;4.43;1.17;;;20.10;99.90;;;;;;5073237;28;20206;-68
2022/05/22 00:20:26;;;;;;;4.87;0.80;;;20.30;99.90;;;;;;5072975;28;20314;-68
2022/05/22 00:22:53;;;;;;;4.03;1.10;;;20.30;99.90;;;;;;5072821;28;20178;-68
2022/05/22 00:25:21;;;;;;;6.70;0.90;;;20.00;99.90;;;;;;5072927;28;20167;-67
2022/05/22 00:27:49;;;;;;;2.60;0.70;;;19.70;99.90;;;;;;5073132;28;20180;-67
2022/05/22 00:30:17;;;;;;;3.60;1.13;;;19.20;99.90;;;;;;5072166;28;20187;-67
2022/05/22 00:32:44;;;;;;;4.90;1.30;;;19.10;99.90;;;;;;5071643;28;20179;-68
2022/05/22 00:35:12;;;;;;;4.50;1.20;;;19.30;99.90;;;;;;5072903;28;20178;-69
2022/05/22 00:37:40;;;;;;;1.30;0.70;;;20.40;99.90;;;;;;5072027;28;20230;-68
2022/05/22 00:40:08;;;;;;;6.40;1.03;;;20.30;99.90;;;;;;5072428;28;20523;-68
2022/05/22 00:42:36;;;;;;;2.47;0.90;;;20.50;99.90;;;;;;5072636;28;20641;-68
2022/05/22 00:45:06;;;;;;;4.73;1.03;;;20.60;99.90;;;;;;5068908;28;20187;-67
2022/05/22 00:47:33;;;;;;;3.33;1.10;;;20.90;99.90;;;;;;5071484;28;20206;-67
2022/05/22 00:50:01;;;;;;;4.03;1.07;;;21.20;99.90;;;;;;5071441;28;20213;-67
2022/05/22 00:52:37;;;;;;;4.47;0.90;;;21.50;99.90;;;;;;5070242;28;20191;-67
2022/05/22 00:55:22;;;;;;;3.37;1.10;;;21.40;99.90;;;;;;5074702;28;20232;-67
2022/05/22 00:57:57;;;;;;;4.17;0.97;;;21.30;99.90;;;;;;5075061;28;20215;-68
2022/05/22 01:00:32;;;;;;;2.07;0.77;;;21.20;99.90;;;;;;5075151;28;20234;-68
2022/05/22 01:05:51;;;;;;;3.80;0.67;;;21.10;99.90;;;;;;5075217;28;20176;-68
2022/05/22 01:08:19;;;;;;;3.33;1.07;;;21.60;99.90;;;;;;5074643;28;20186;-68
2022/05/22 01:10:58;;;;;;;2.43;0.93;;;22.00;99.90;;;;;;5075220;28;20198;-66
2022/05/22 01:13:48;;;;;;;2.50;0.70;;;22.00;99.90;;;;;;5074828;28;20179;-67
2022/05/22 01:16:17;;;;;;;2.10;0.63;;;21.50;99.90;;;;;;5071032;28;20235;-69
2022/05/22 01:18:50;;;;;;;3.73;0.70;;;21.40;99.90;;;;;;5073282;28;20252;-69
2022/05/22 01:21:27;;;;;;;3.53;0.80;;;21.40;99.90;;;;;;5072677;28;20709;-70
2022/05/22 01:23:55;;;;;;;2.57;0.73;;;21.10;99.90;;;;;;5073057;28;20204;-68
2022/05/22 01:26:24;;;;;;;3.23;0.77;;;21.30;99.90;;;;;;5072468;28;20237;-70
2022/05/22 01:28:52;;;;;;;4.33;0.77;;;21.00;99.90;;;;;;5071330;28;20184;-68
2022/05/22 01:31:19;;;;;;;4.83;0.90;;;20.50;99.90;;;;;;5072847;28;20279;-70
2022/05/22 01:33:47;;;;;;;4.03;0.83;;;20.00;99.90;;;;;;5072687;28;20573;-69
2022/05/22 01:36:17;;;;;;;3.03;0.80;;;19.90;99.90;;;;;;5074440;28;20634;-69
2022/05/22 01:38:45;;;;;;;5.87;1.10;;;20.20;99.90;;;;;;5073064;28;20635;-70
2022/05/22 01:41:12;;;;;;;2.07;0.97;;;20.20;99.90;;;;;;5073363;28;20256;-69
2022/05/22 01:43:40;;;;;;;1.60;0.60;;;20.30;99.90;;;;;;5074364;28;20267;-69
2022/05/22 01:46:08;;;;;;;4.47;0.90;;;20.40;99.90;;;;;;5074549;28;20284;-70
2022/05/22 01:48:35;;;;;;;3.27;1.37;;;20.50;99.90;;;;;;5073871;28;20184;-69
2022/05/22 01:51:05;;;;;;;3.80;0.60;;;20.60;99.90;;;;;;5073569;28;20229;-69
2022/05/22 01:53:33;;;;;;;3.00;0.60;;;20.90;99.90;;;;;;5074236;28;20180;-69
2022/05/22 01:56:01;;;;;;;2.77;0.80;;;20.60;99.90;;;;;;5074179;28;20658;-69
2022/05/22 01:58:28;;;;;;;1.90;0.57;;;19.90;99.90;;;;;;5073846;28;20306;-69
2022/05/22 02:00:56;;;;;;;3.80;0.93;;;19.50;99.90;;;;;;5074325;28;20258;-69
2022/05/22 02:03:24;;;;;;;6.17;1.47;;;19.10;99.90;;;;;;5074258;28;20184;-69
2022/05/22 02:05:52;;;;;;;3.30;0.83;;;18.90;99.90;;;;;;5073563;28;20176;-70
2022/05/22 02:08:22;;;;;;;3.67;0.77;;;18.80;99.90;;;;;;5073861;28;20177;-69
2022/05/22 02:10:57;;;;;;;4.50;1.53;;;19.00;99.90;;;;;;5074228;28;20547;-69
2022/05/22 02:13:28;;;;;;;5.87;1.10;;;19.20;99.90;;;;;;5072852;28;20184;-70
2022/05/22 02:15:56;;;;;;;3.53;0.90;;;19.20;99.90;;;;;;5073457;28;20235;-69
2022/05/22 02:18:24;;;;;;;6.07;1.40;;;19.10;99.90;;;;;;5073330;28;20212;-69
2022/05/22 02:20:51;;;;;;;3.77;0.90;;;19.00;99.90;;;;;;5073921;28;20175;-69
2022/05/22 02:23:20;;;;;;;2.50;0.90;;;19.00;99.90;;;;;;5073762;28;20187;-69
2022/05/22 02:25:52;;;;;;;7.00;0.97;;;18.60;99.90;;;;;;5073567;28;20187;-70
2022/05/22 02:28:22;;;;;;;2.17;0.60;;;18.60;99.90;;;;;;5072262;28;20185;-69
2022/05/22 02:30:54;;;;;;;3.53;0.80;;;18.60;99.90;;;;;;5073774;28;20175;-70
2022/05/22 02:33:21;;;;;;;6.77;1.20;;;18.60;99.90;;;;;;5073624;28;20168;-69
2022/05/22 02:35:51;;;;;;;1.93;0.73;;;18.60;99.90;;;;;;5073453;28;20176;-69
2022/05/22 02:38:19;;;;;;;4.60;0.80;;;18.60;99.90;;;;;;5071899;28;20586;-68
2022/05/22 02:40:47;;;;;;;4.50;1.00;;;18.40;99.90;;;;;;5072762;28;20184;-68
2022/05/22 02:43:15;;;;;;;2.43;1.00;;;18.40;99.90;;;;;;5073036;28;20270;-68
2022/05/22 02:45:43;;;;;;;4.47;1.10;;;18.40;99.90;;;;;;5072652;28;20187;-68
2022/05/22 02:48:11;;;;;;;6.23;1.07;;;18.40;99.90;;;;;;5073148;28;20675;-68
2022/05/22 02:50:41;;;;;;;6.77;1.10;;;18.40;99.90;;;;;;5073299;28;20187;-68
2022/05/22 02:53:09;;;;;;;3.80;0.83;;;18.50;99.90;;;;;;5073266;28;20175;-68
2022/05/22 02:55:39;;;;;;;4.23;0.83;;;18.40;99.90;;;;;;5072811;28;20183;-68
2022/05/22 02:58:07;;;;;;;2.57;0.80;;;18.40;99.90;;;;;;5072694;28;20681;-67
2022/05/22 03:00:34;;;;;;;2.93;0.90;;;18.40;99.90;;;;;;5072668;28;20172;-67
2022/05/22 03:03:02;;;;;;;3.10;0.80;;;18.30;99.90;;;;;;5072964;28;20172;-68
2022/05/22 03:06:38;;;;;;;4.07;1.00;;;18.30;99.90;;;;;;5072558;28;20198;-68
2022/05/22 03:08:18;;;;;;;8.20;0.93;;;18.30;99.90;;;;;;5072379;28;20190;-68
2022/05/22 03:10:45;;;;;;;4.50;0.93;;;18.20;99.90;;;;;;5072829;28;20192;-68
2022/05/22 03:13:14;;;;;;;4.80;1.27;;;18.20;99.90;;;;;;5072749;28;20657;-68
2022/05/22 03:15:42;;;;;;;2.07;0.80;;;18.30;99.90;;;;;;5072008;28;20566;-68
2022/05/22 03:18:09;;;;;;;5.10;0.90;;;18.30;99.90;;;;;;5071814;28;20215;-67
2022/05/22 03:20:37;;;;;;;3.00;1.30;;;18.30;99.90;;;;;;5072804;28;20195;-68
2022/05/22 03:23:05;;;;;;;5.13;1.03;;;18.30;99.90;;;;;;5072773;28;20253;-68
2022/05/22 03:25:33;;;;;;;3.23;1.10;;;18.30;99.90;;;;;;5072478;28;20178;-68
2022/05/22 03:28:00;;;;;;;5.67;1.93;;;18.30;99.90;;;;;;5072586;28;20255;-68
2022/05/22 03:30:28;;;;;;;6.20;1.40;;;18.40;99.90;;;;;;5071156;28;20188;-68
2022/05/22 03:32:56;;;;;;;4.00;1.20;;;18.30;99.90;;;;;;5072301;28;20241;-69
2022/05/22 03:35:24;;;;;;;4.50;1.37;;;18.30;99.90;;;;;;5072384;28;20172;-68
2022/05/22 03:37:51;;;;;;;3.17;1.20;;;18.30;99.90;;;;;;5072232;28;20207;-68
2022/05/22 03:40:19;;;;;;;7.50;1.23;;;18.30;99.90;;;;;;5072357;28;20258;-69
2022/05/22 03:42:47;;;;;;;6.50;1.23;;;18.30;99.90;;;;;;5072245;28;20187;-69
2022/05/22 03:45:15;;;;;;;3.53;0.90;;;18.40;99.90;;;;;;5072106;28;20180;-69
2022/05/22 03:47:43;;;;;;;4.70;1.00;;;18.40;99.90;;;;;;5072217;28;20255;-68
2022/05/22 03:50:13;;;;;;;7.53;1.33;;;18.30;99.90;;;;;;5071846;28;20176;-69
2022/05/22 03:52:44;;;;;;;4.67;1.33;;;18.30;99.90;;;;;;5072073;28;20168;-68
2022/05/22 03:55:14;;;;;;;2.23;1.03;;;18.30;99.90;;;;;;5071723;28;20187;-68
2022/05/22 03:57:45;;;;;;;4.17;1.00;;;18.40;99.90;;;;;;5081318;28;20226;-69
2022/05/22 04:00:16;;;;;;;7.93;1.77;;;18.40;99.90;;;;;;5086861;28;20207;-67
2022/05/22 04:02:44;;;;;;;4.03;1.03;;;18.30;99.90;;;;;;5076417;28;20322;-67
2022/05/22 04:05:13;;;;;;;8.80;1.57;;;18.30;99.90;;;;;;5071797;28;20672;-67
2022/05/22 04:07:42;;;;;;;5.13;1.17;;;18.30;99.90;;;;;;5076796;28;20772;-67
2022/05/22 04:10:12;;;;;;;1.47;0.80;;;18.30;99.90;;;;;;5076586;28;20176;-68
2022/05/22 04:12:42;;;;;;;4.43;0.80;;;18.20;99.90;;;;;;5083328;28;20176;-68
2022/05/22 04:15:12;;;;;;;5.20;0.87;;;18.20;99.90;;;;;;5071223;28;20214;-69
2022/05/22 04:17:40;;;;;;;5.57;1.33;;;18.20;99.90;;;;;;5070724;28;20277;-67
2022/05/22 04:20:08;;;;;;;3.47;0.93;;;18.20;99.90;;;;;;5070475;28;20551;-68
2022/05/22 04:25:27;;;;;;;6.17;0.90;;;18.20;99.90;;;;;;5061207;28;20199;-69
2022/05/22 04:27:55;;;;;;;2.60;0.80;;;18.10;99.90;;;;;;5071690;28;20183;-69
2022/05/22 04:30:23;;;;;;;6.30;1.33;;;18.00;99.90;;;;;;5070363;28;20550;-68
2022/05/22 04:32:53;;;;;;;2.77;0.73;;;18.00;99.90;;;;;;5071651;28;20180;-68
2022/05/22 04:35:22;;;;;;;5.63;1.00;;;18.00;99.90;;;;;;5071553;28;20197;-68
2022/05/22 04:37:50;;;;;;;5.57;0.80;;;17.90;99.90;;;;;;5071401;28;20221;-69
2022/05/22 04:40:18;;;;;;;2.77;1.17;;;18.10;99.90;;;;;;5071670;28;20176;-69
2022/05/22 04:42:45;;;;;;;5.17;1.10;;;18.10;99.90;;;;;;5070571;28;20191;-68
2022/05/22 04:45:14;;;;;;;2.47;1.40;;;18.20;99.90;;;;;;5071200;28;20206;-68
2022/05/22 04:47:42;;;;;;;6.07;1.00;;;18.10;99.90;;;;;;5070838;28;20715;-68
2022/05/22 04:50:12;;;;;;;2.20;1.20;;;18.10;99.90;;;;;;5071272;28;20185;-69
2022/05/22 04:52:40;;;;;;;2.07;0.90;;;18.10;99.90;;;;;;5069662;28;20219;-68
2022/05/22 04:55:09;;;;;;;4.60;0.87;;;18.10;99.90;;;;;;5070197;28;20180;-68
2022/05/22 04:57:38;;;;;;;4.77;1.00;;;18.00;99.90;;;;;;5057141;28;20208;-69
2022/05/22 05:00:09;;;;;;;4.23;1.00;;;18.00;99.90;;;;;;5070200;28;20176;-70
2022/05/22 05:02:38;;;;;;;6.27;1.07;;;18.00;99.90;;;;;;5071238;28;20233;-70
2022/05/22 05:05:08;;;;;;;3.47;1.03;;;17.90;99.90;;;;;;5071539;28;20172;-69
2022/05/22 05:07:40;;;;;;;2.80;0.90;;;17.90;99.90;;;;;;5071455;28;20210;-69
2022/05/22 05:10:10;;;;;;;1.23;0.63;;;17.80;99.90;;;;;;5071568;28;20173;-67
2022/05/22 05:12:40;;;;;;;1.97;0.60;;;17.70;99.90;;;;;;5071340;28;20657;-68
2022/05/22 05:15:11;;;;;;;3.53;0.90;;;17.60;99.90;;;;;;5071234;28;20214;-68
2022/05/22 05:17:42;;;;;;;2.13;0.90;;;17.60;99.90;;;;;;5070905;28;20221;-70
2022/05/22 05:20:11;;;;;;;4.50;1.20;;;17.60;99.90;;;;;;5071162;28;20179;-69
2022/05/22 05:22:40;;;;;;;7.27;1.37;;;17.50;99.90;;;;;;5069579;28;20176;-69
2022/05/22 05:25:08;;;;;;;4.40;1.10;;;17.50;99.90;;;;;;5070247;28;20190;-69
2022/05/22 05:27:36;;;;;;;8.00;1.30;;;17.50;99.90;;;;;;5070790;28;20188;-68
2022/05/22 05:30:05;;;;;;;3.20;1.40;;;17.50;99.90;;;;;;5070657;28;20245;-68
2022/05/22 05:32:32;;;;;;;5.23;1.60;;;17.50;99.90;;;;;;5071030;28;20199;-68
2022/05/22 05:35:03;;;;;;;5.00;0.90;;;17.40;99.90;;;;;;5071193;28;20641;-69
2022/05/22 05:37:31;;;;;;;2.50;1.50;;;17.40;99.90;;;;;;5071067;28;20223;-68
2022/05/22 05:39:59;;;;;;;4.33;1.53;;;17.30;99.90;;;;;;5069648;28;20176;-69
2022/05/22 05:42:32;;;;;;;3.00;0.90;;;17.30;99.90;;;;;;5072834;28;20199;-68
2022/05/22 05:45:00;;;;;;;5.77;1.23;;;17.30;99.90;;;;;;5072385;28;20175;-68
2022/05/22 05:47:28;;;;;;;3.23;1.30;;;17.30;99.90;;;;;;5072070;28;20184;-68
2022/05/22 05:49:56;;;;;;;6.37;1.43;;;17.20;99.90;;;;;;5072230;28;20665;-69
2022/05/22 05:52:24;;;;;;;3.73;1.30;;;17.20;99.90;;;;;;5067029;28;20182;-68
2022/05/22 05:54:51;;;;;;;4.73;1.30;;;17.10;99.90;;;;;;5073306;28;20183;-69
2022/05/22 05:57:19;;;;;;;3.70;1.30;;;17.10;99.90;;;;;;5074020;28;20238;-69
2022/05/22 05:59:47;;;;;;;5.60;1.63;;;17.10;99.90;;;;;;5074150;28;20530;-69
2022/05/22 06:02:15;;;;;;;3.63;1.43;;;17.00;99.90;;;;;;5074353;28;20183;-68
2022/05/22 06:04:44;;;;;;;4.10;1.23;;;16.90;99.90;;;;;;5072921;28;20191;-68
2022/05/22 06:07:11;;;;;;;4.07;1.23;;;17.00;99.90;;;;;;5074715;28;20176;-70
2022/05/22 06:09:39;;;;;;;3.40;1.17;;;17.00;99.90;;;;;;5073999;28;20207;-69
2022/05/22 06:12:07;;;;;;;4.13;1.50;;;16.90;99.90;;;;;;5074280;28;20223;-70
2022/05/22 06:14:35;;;;;;;4.73;1.50;;;16.90;99.90;;;;;;5074037;28;20662;-70
2022/05/22 06:17:03;;;;;;;4.33;1.67;;;16.80;99.90;;;;;;5073852;28;20712;-69
2022/05/22 06:22:17;;;;;;;5.30;1.60;;;16.70;99.90;;;;;;5073977;28;20220;-69
2022/05/22 06:24:45;;;;;;;2.27;1.30;;;16.50;99.90;;;;;;5072606;28;20629;-69
2022/05/22 06:27:13;;;;;;;3.30;1.57;;;16.50;99.90;;;;;;5073981;28;20172;-69
2022/05/22 06:29:42;;;;;;;4.73;1.90;;;16.50;99.90;;;;;;5073655;28;20191;-67
2022/05/22 06:32:13;;;;;;;3.67;1.57;;;16.40;99.90;;;;;;5073827;28;20210;-69
2022/05/22 06:34:42;;;;;;;7.13;1.80;;;16.40;99.90;;;;;;5073671;28;20184;-70
2022/05/22 06:37:12;;;;;;;4.67;1.87;;;16.30;99.90;;;;;;5073556;28;20218;-69
2022/05/22 06:39:53;;;;;;;2.60;1.30;;;16.30;99.90;;;;;;5073568;28;20172;-69
2022/05/22 06:42:34;;;;;;;5.63;1.77;;;16.20;99.90;;;;;;5072163;28;20198;-68
2022/05/22 06:45:21;;;;;;;4.63;1.27;;;16.20;99.90;;;;;;5056850;28;20194;-69
2022/05/22 06:47:49;;;;;;;2.20;1.10;;;16.10;99.90;;;;;;5072796;28;20549;-69
2022/05/22 06:50:21;;;;;;;4.33;2.27;;;16.00;99.90;;;;;;5072869;28;20194;-69
2022/05/22 06:52:49;;;;;;;4.90;1.47;;;16.00;99.90;;;;;;5073123;28;20588;-68
2022/05/22 06:55:17;;;;;;;2.43;1.17;;;15.80;99.90;;;;;;5072999;28;20183;-68
2022/05/22 06:57:45;;;;;;;5.03;1.30;;;15.80;99.90;;;;;;5072898;28;20272;-69
2022/05/22 07:00:16;;;;;;;5.07;1.83;;;15.80;99.90;;;;;;5073082;28;20255;-68
2022/05/22 07:02:44;;;;;;;5.10;1.97;;;15.80;99.90;;;;;;5073072;28;20708;-69
2022/05/22 07:05:13;;;;;;;3.17;1.50;;;15.70;99.90;;;;;;5072949;28;20184;-69
2022/05/22 07:07:41;;;;;;;4.87;1.77;;;15.70;99.90;;;;;;5072864;28;20190;-68
2022/05/22 07:10:09;;;;;;;2.87;1.23;;;15.60;99.90;;;;;;5072782;28;20645;-69
2022/05/22 07:12:37;;;;;;;4.27;1.67;;;15.60;99.90;;;;;;5072712;28;20182;-69
2022/05/22 07:15:06;;;;;;;2.87;1.10;;;15.60;99.90;;;;;;5072624;28;20553;-69
2022/05/22 07:17:34;;;;;;;3.90;0.97;;;15.60;99.90;;;;;;5072439;28;20716;-69
2022/05/22 07:20:02;;;;;;;1.93;1.17;;;15.60;99.90;;;;;;5072322;28;20186;-68
2022/05/22 07:22:30;;;;;;;10.77;1.53;;;15.50;99.90;;;;;;5072506;28;20195;-69
2022/05/22 07:24:58;;;;;;;3.40;1.40;;;15.40;99.90;;;;;;5072211;28;20642;-69
2022/05/22 07:27:26;;;;;;;5.17;1.47;;;15.40;99.90;;;;;;5072596;28;20593;-69
2022/05/22 07:29:54;;;;;;;4.90;1.30;;;15.40;99.90;;;;;;5070338;28;20192;-69
2022/05/22 07:32:24;;;;;;;3.43;1.10;;;15.30;99.90;;;;;;5072156;28;20238;-67
2022/05/22 07:34:53;;;;;;;5.50;1.40;;;15.40;99.90;;;;;;5072417;28;20187;-69
2022/05/22 07:37:20;;;;;;;2.27;1.30;;;15.40;99.90;;;;;;5072180;28;20673;-68
2022/05/22 07:39:51;;;;;;;1.93;1.10;;;15.30;99.90;;;;;;5071643;28;20263;-69
2022/05/22 07:42:20;;;;;;;3.80;1.00;;;15.30;99.90;;;;;;5072204;28;20187;-69
2022/05/22 07:44:49;;;;;;;2.87;1.20;;;15.30;99.90;;;;;;5072475;28;20664;-68
2022/05/22 07:47:17;;;;;;;5.17;1.33;;;15.30;99.90;;;;;;5072286;28;20653;-70
2022/05/22 07:52:31;;;;;;;4.47;1.63;;;15.20;99.90;;;;;;5072226;28;20202;-70
2022/05/22 07:54:59;;;;;;;2.67;1.40;;;15.20;99.90;;;;;;5071901;28;20186;-68
2022/05/22 07:57:27;;;;;;;3.87;1.30;;;15.20;99.90;;;;;;5071712;28;20204;-70
2022/05/22 07:59:55;;;;;;;2.63;1.40;;;15.10;99.90;;;;;;5071768;28;20188;-69
2022/05/22 08:02:23;;;;;;;3.63;1.40;;;15.20;99.90;;;;;;5055565;28;20191;-68
2022/05/22 08:04:50;;;;;;;3.47;1.90;;;15.20;99.90;;;;;;5071648;28;20188;-69
2022/05/22 08:07:18;;;;;;;4.90;1.60;;;15.10;99.90;;;;;;5072034;28;20191;-69
2022/05/22 08:09:46;;;;;;;5.93;1.90;;;15.10;99.90;;;;;;5071662;28;20194;-68
2022/05/22 08:12:14;;;;;;;6.23;1.97;;;15.00;99.90;;;;;;5069003;28;20222;-69
2022/05/22 08:14:42;;;;;;;2.47;1.30;;;15.00;99.90;;;;;;5071772;28;20228;-69
2022/05/22 08:17:10;;;;;;;3.30;2.03;;;15.00;99.90;;;;;;5071210;28;20296;-69
2022/05/22 08:19:37;;;;;;;1.80;1.10;;;15.00;99.90;;;;;;5071754;28;20183;-69
2022/05/22 08:22:05;;;;;;;2.97;1.23;;;15.00;99.90;;;;;;5071780;28;20191;-67
2022/05/22 08:24:33;;;;;;;5.53;1.67;;;15.00;99.90;;;;;;5071781;28;20258;-69
2022/05/22 08:27:01;;;;;;;7.00;2.67;;;14.90;99.90;;;;;;5071577;28;20183;-69
2022/05/22 08:29:29;;;;;;;5.97;4.23;;;15.00;99.90;;;;;;5071466;28;20657;-69
2022/05/22 08:31:57;;;;;;;3.10;2.03;;;14.90;99.90;;;;;;5069813;28;20184;-67
2022/05/22 08:34:24;;;;;;;3.20;1.60;;;15.00;99.90;;;;;;5068278;28;20660;-70
2022/05/22 08:36:53;;;;;;;6.63;1.23;;;15.00;99.90;;;;;;5070318;28;20637;-68
2022/05/22 08:39:20;;;;;;;1.40;1.20;;;14.90;99.90;;;;;;5071080;28;20325;-69
2022/05/22 08:41:53;;;;;;;4.03;1.00;;;15.00;99.90;;;;;;5070626;28;20296;-71
2022/05/22 08:44:30;;;;;;;2.70;1.17;;;14.90;99.90;;;;;;5071168;28;20776;-69
2022/05/22 08:47:10;;;;;;;2.40;1.20;;;14.90;99.90;;;;;;5071509;28;20188;-70
2022/05/22 08:49:41;;;;;;;2.20;1.00;;;14.90;99.90;;;;;;5071562;28;20201;-70
2022/05/22 08:52:27;;;;;;;2.73;1.40;;;14.80;99.90;;;;;;5071630;28;20270;-69
2022/05/22 08:55:14;;;;;;;4.60;0.90;;;14.80;99.90;;;;;;5071631;28;20206;-70
2022/05/22 09:01:02;;;;;;;2.13;1.20;;;14.90;99.90;;;;;;5071471;28;20190;-69
2022/05/22 09:04:13;;;;;;;4.97;1.40;;;14.80;99.90;;;;;;5071563;28;20647;-69
2022/05/22 09:06:51;;;;;;;3.63;1.40;;;14.80;99.90;;;;;;5053640;28;20194;-70
2022/05/22 09:09:19;;;;;;;4.80;2.00;;;14.80;99.90;;;;;;5071156;28;20216;-70
2022/05/22 09:11:56;;;;;;;3.30;1.50;;;14.80;99.90;;;;;;5071470;28;20180;-70
2022/05/22 09:14:40;;;;;;;3.00;1.30;;;14.80;99.90;;;;;;5071542;28;20175;-69
2022/05/22 09:17:34;;;;;;;4.40;1.93;;;14.80;99.90;;;;;;5073851;28;20231;-69
2022/05/22 09:20:20;;;;;;;6.13;1.73;;;14.70;99.90;;;;;;5074978;28;20763;-69
2022/05/22 09:23:15;;;;;;;1.93;1.23;;;14.80;99.90;;;;;;5075244;28;20283;-68
2022/05/22 09:26:08;;;;;;;2.10;1.13;;;14.80;99.90;;;;;;5075107;28;20585;-68
2022/05/22 09:28:46;;;;;;;4.20;1.33;;;14.80;99.90;;;;;;5075167;28;20240;-69
2022/05/22 09:31:46;;;;;;;2.37;1.53;;;14.80;99.90;;;;;;5058341;28;20548;-68
2022/05/22 09:34:22;;;;;;;5.83;1.40;;;14.80;99.90;;;;;;5074440;28;20183;-68
2022/05/22 09:37:12;;;;;;;2.63;1.27;;;14.70;99.90;;;;;;5073304;28;20198;-69
2022/05/22 09:40:21;;;;;;;2.33;1.10;;;14.70;99.90;;;;;;5074549;28;20614;-69
2022/05/22 09:43:06;;;;;;;3.43;1.30;;;14.70;99.90;;;;;;5074817;28;20302;-69
2022/05/22 09:45:59;;;;;;;3.03;1.40;;;14.60;99.90;;;;;;5074775;28;20180;-68
2022/05/22 09:48:30;;;;;;;3.70;1.60;;;14.60;99.90;;;;;;5048045;28;20212;-69
2022/05/22 09:51:16;;;;;;;3.27;1.27;;;14.60;99.90;;;;;;5054729;28;20219;-69
2022/05/22 09:54:04;;;;;;;3.77;1.43;;;14.60;99.90;;;;;;5054563;28;20177;-69
2022/05/22 09:57:09;;;;;;;2.83;1.30;;;14.60;99.90;;;;;;5068311;28;20230;-69
2022/05/22 10:00:02;;;;;;;5.53;2.07;;;14.60;99.90;;;;;;5072857;28;20192;-68
2022/05/22 10:02:51;;;;;;;2.93;1.70;;;14.60;99.90;;;;;;5074392;28;20663;-68
2022/05/22 10:05:42;;;;;;;6.27;1.60;;;14.50;99.90;;;;;;5074223;28;20645;-69
2022/05/22 10:08:10;;;;;;;2.93;1.40;;;14.50;99.90;;;;;;5074265;28;20183;-69
2022/05/22 10:10:45;;;;;;;2.73;1.33;;;14.40;99.90;;;;;;5072958;28;20229;-68
2022/05/22 10:13:21;;;;;;;1.70;1.30;;;14.50;99.90;;;;;;5073979;28;20171;-69
2022/05/22 10:16:03;;;;;;;4.07;1.67;;;14.50;99.90;;;;;;5073267;28;20281;-68
2022/05/22 10:18:48;;;;;;;4.33;1.57;;;14.50;99.90;;;;;;5073586;28;20304;-69
2022/05/22 10:21:31;;;;;;;4.13;1.43;;;14.50;99.90;;;;;;5072410;28;20652;-69
2022/05/22 10:24:17;;;;;;;5.03;1.30;;;14.50;99.90;;;;;;5073872;28;20183;-68
2022/05/22 10:27:06;;;;;;;4.47;1.50;;;14.50;99.90;;;;;;5073667;28;20168;-68
2022/05/22 10:30:14;;;;;;;2.27;1.33;;;14.50;99.90;;;;;;5073898;28;20191;-68
2022/05/22 10:32:51;;;;;;;4.10;1.50;;;14.50;99.90;;;;;;5073703;28;20262;-68
2022/05/22 10:35:50;;;;;;;2.07;1.37;;;14.50;99.90;;;;;;5073782;28;20660;-68
2022/05/22 10:38:32;;;;;;;2.53;1.40;;;14.50;99.90;;;;;;5073582;28;20215;-68
2022/05/22 10:44:20;;;;;;;3.63;1.93;;;14.50;99.90;;;;;;5073923;28;20209;-69
2022/05/22 10:46:53;;;;;;;3.43;1.97;;;14.50;99.90;;;;;;5073723;28;20537;-69
2022/05/22 10:49:25;;;;;;;3.33;1.90;;;14.50;99.90;;;;;;5073610;28;20172;-68
2022/05/22 10:51:58;;;;;;;4.83;1.47;;;14.50;99.90;;;;;;5073339;28;20298;-68
2022/05/22 10:54:32;;;;;;;2.60;1.97;;;14.40;99.90;;;;;;5073597;28;20645;-68
2022/05/22 10:57:12;;;;;;;3.93;2.10;;;14.40;99.90;;;;;;5073331;28;20184;-68
2022/05/22 10:59:40;;;;;;;4.57;2.23;;;14.40;99.90;;;;;;5073531;28;20645;-68
2022/05/22 11:02:19;;;;;;;4.07;2.00;;;14.40;99.90;;;;;;5073209;28;20176;-70
2022/05/22 11:04:47;;;;;;;4.30;2.20;;;14.40;99.90;;;;;;5072101;28;20800;-69
2022/05/22 11:07:36;;;;;;;5.40;1.97;;;14.30;99.90;;;;;;5073083;28;20179;-68
2022/05/22 11:10:09;;;;;;;2.10;1.47;;;14.40;99.90;;;;;;5068979;28;20245;-67
2022/05/22 11:12:37;;;;;;;2.63;1.77;;;14.30;99.90;;;;;;5051859;28;20189;-68
2022/05/22 11:15:14;;;;;;;6.03;1.87;;;14.30;99.90;;;;;;5053161;28;20666;-68
2022/05/22 11:17:42;;;;;;;2.80;1.53;;;14.20;99.90;;;;;;5053046;28;20252;-68
2022/05/22 11:20:14;;;;;;;5.30;1.43;;;14.20;99.90;;;;;;5052985;28;20168;-69
2022/05/22 11:23:01;;;;;;;2.70;1.40;;;14.20;99.90;;;;;;5071484;28;20631;-69
2022/05/22 11:25:51;;;;;;;3.57;1.40;;;14.20;99.90;;;;;;5073011;28;20981;-69
2022/05/22 11:28:18;;;;;;;3.90;1.40;;;14.10;99.90;;;;;;5072950;28;20176;-68
2022/05/22 11:31:02;;;;;;;2.53;1.57;;;14.20;99.90;;;;;;5072465;28;20859;-68
2022/05/22 11:34:06;;;;;;;3.10;1.53;;;14.10;99.90;;;;;;5072815;28;20595;-68
2022/05/22 11:36:46;;;;;;;5.67;1.70;;;14.10;99.90;;;;;;5072653;28;20171;-68
2022/05/22 11:39:50;;;;;;;3.03;1.57;;;14.00;99.90;;;;;;5071975;28;20194;-68
2022/05/22 11:42:33;;;;;;;2.00;1.57;;;14.00;99.90;;;;;;5052696;28;20184;-68
2022/05/22 11:45:22;;;;;;;1.87;1.40;;;14.00;99.90;;;;;;5051205;28;20191;-68
2022/05/22 11:48:39;;;;;;;2.00;1.10;;;13.90;99.90;;;;;;5053913;28;20227;-68
2022/05/22 11:51:22;;;;;;;3.57;1.33;;;14.00;99.90;;;;;;5050797;28;20197;-69
2022/05/22 11:54:12;;;;;;;2.20;1.60;;;13.90;99.90;;;;;;5052397;28;20173;-70
2022/05/22 11:56:58;;;;;;;3.40;1.73;;;13.90;99.90;;;;;;5052261;28;20187;-69
2022/05/22 11:59:47;;;;;;;2.00;1.50;;;13.90;99.90;;;;;;5052573;28;20205;-69
2022/05/22 12:02:52;;;;;;;2.60;1.40;;;13.80;99.90;;;;;;5068893;28;20172;-69
2022/05/22 12:05:38;;;;;;;6.13;2.00;;;13.80;99.90;;;;;;5062337;28;20282;-68
2022/05/22 12:08:14;;;;;;;4.20;2.23;;;13.80;99.90;;;;;;5073286;28;20174;-69
2022/05/22 12:10:52;;;;;;;3.47;1.83;;;13.80;99.90;;;;;;5072106;28;20676;-70
2022/05/22 12:13:42;;;;;;;5.73;2.10;;;13.70;99.90;;;;;;5073527;28;20176;-70
2022/05/22 12:16:36;;;;;;;3.93;1.83;;;13.80;99.90;;;;;;5073132;28;20309;-70
2022/05/22 12:19:26;;;;;;;2.63;1.60;;;13.70;99.90;;;;;;5072715;28;20216;-67
2022/05/22 12:22:19;;;;;;;4.33;1.80;;;13.70;99.90;;;;;;5068642;28;20184;-68
2022/05/22 12:25:02;;;;;;;2.33;1.80;;;13.70;99.90;;;;;;5067330;28;20273;-68
2022/05/22 12:27:36;;;;;;;2.10;1.80;;;13.70;99.90;;;;;;5072949;28;20179;-69
2022/05/22 12:30:27;;;;;;;6.03;2.40;;;13.70;99.90;;;;;;5073046;28;20183;-69
2022/05/22 12:33:00;;;;;;;4.67;2.30;;;13.60;99.90;;;;;;5072843;28;20218;-69
2022/05/22 12:35:29;;;;;;;5.43;2.10;;;13.60;99.90;;;;;;5072963;28;20182;-69
2022/05/22 12:38:01;;;;;;;4.87;1.90;;;13.60;99.90;;;;;;5072881;28;20256;-69
2022/05/22 12:40:46;;;;;;;2.50;1.77;;;13.60;99.90;;;;;;5072968;28;20252;-70
2022/05/22 12:43:24;;;;;;;3.53;2.00;;;13.50;99.90;;;;;;5073163;28;20179;-69
2022/05/22 12:45:59;;;;;;;2.73;2.07;;;13.50;99.90;;;;;;5072791;28;20275;-69
2022/05/22 12:48:43;;;;;;;5.93;1.67;;;13.40;99.90;;;;;;5072783;28;20555;-69
2022/05/22 12:51:19;;;;;;;5.43;2.20;;;13.30;99.90;;;;;;5075896;28;20183;-70
2022/05/22 12:53:50;;;;;;;3.67;1.80;;;13.30;99.90;;;;;;5076375;28;20664;-69
2022/05/22 12:56:18;;;;;;;3.57;1.77;;;13.20;99.90;;;;;;5075543;28;20209;-70
2022/05/22 12:58:52;;;;;;;2.97;1.83;;;13.10;99.90;;;;;;5076355;28;20307;-69
2022/05/22 13:01:37;;;;;;;3.93;1.90;;;13.00;99.90;;;;;;5077011;28;20185;-69
2022/05/22 13:04:22;;;;;;;2.27;1.60;;;13.00;99.90;;;;;;5076761;28;20180;-69
2022/05/22 13:06:55;;;;;;;3.87;1.80;;;12.90;99.90;;;;;;5075208;28;20190;-69
2022/05/22 13:09:35;;;;;;;2.70;1.77;;;12.80;99.90;;;;;;5076529;28;20229;-69
2022/05/22 13:12:07;;;;;;;3.97;2.13;;;12.80;99.90;;;;;;5077103;28;20259;-69
2022/05/22 13:14:51;;;;;;;3.37;1.97;;;12.70;99.90;;;;;;5076085;28;20179;-69
2022/05/22 13:17:42;;;;;;;5.70;2.43;;;12.60;99.90;;;;;;5075566;28;20280;-68
2022/05/22 13:20:25;;;;;;;3.83;1.80;;;12.70;99.90;;;;;;5073165;28;20191;-69
2022/05/22 13:23:24;;;;;;;5.10;1.90;;;12.70;99.90;;;;;;5076675;28;20548;-70
2022/05/22 13:25:56;;;;;;;3.03;1.80;;;12.60;99.90;;;;;;5057031;28;20180;-70
2022/05/22 13:28:33;;;;;;;3.60;2.80;;;12.60;99.90;;;;;;5074537;28;20186;-69
2022/05/22 13:31:13;;;;;;;6.20;2.63;;;12.50;99.90;;;;;;5076114;28;20217;-70
2022/05/22 13:34:13;;;;;;;5.93;3.63;;;12.40;99.90;;;;;;5076356;28;20171;-70
2022/05/22 13:37:06;;;;;;;6.83;3.20;;;12.40;99.90;;;;;;5075751;28;20175;-68
2022/05/22 13:39:46;;;;;;;4.40;3.57;;;12.30;99.90;;;;;;5075957;28;20203;-69